sensor_id;sensor_type;location;lat;lon;timestamp;temperature;humidity
2721;DHT22;1368;49.484;11.112;2022-09-17T00:00:55;10.50;99.90
2721;DHT22;1368;49.484;11.112;2022-09-17T00:03:21;10.60;99.90
2721;DHT22;1368;49.484;11.112;2022-09-17T00:05:47;10.40;99.90
2721;DHT22;1368;49.484;11.112;2022-09-17T00:08:13;10.50;99.90
2721;DHT22;1368;49.484;11.112;2022-09-17T00:10:42;10.40;99.90
2721;DHT22;1368;49.484;11.112;2022-09-17T00:13:09;10.40;99.90
2721;DHT22;1368;49.484;11.112;2022-09-17T00:15:42;10.40;99.90
2721;DHT22;1368;49.484;11.112;2022-09-17T00:18:08;10.40;99.90
2721;DHT22;1368;49.484;11.112;2022-09-17T00:20:41;10.40;99.90
2721;DHT22;1368;49.484;11.112;2022-09-17T00:23:08;10.40;99.90
2721;DHT22;1368;49.484;11.112;2022-09-17T00:25:37;10.30;99.90
2721;DHT22;1368;49.484;11.112;2022-09-17T00:28:02;10.20;99.90
2721;DHT22;1368;49.484;11.112;2022-09-17T00:30:28;10.20;99.90
2721;DHT22;1368;49.484;11.112;2022-09-17T00:32:54;10.10;99.90
2721;DHT22;1368;49.484;11.112;2022-09-17T00:35:23;10.10;99.90
2721;DHT22;1368;49.484;11.112;2022-09-17T00:37:49;10.20;99.90
2721;DHT22;1368;49.484;11.112;2022-09-17T00:40:15;10.10;99.90
2721;DHT22;1368;49.484;11.112;2022-09-17T00:42:40;10.20;99.90
2721;DHT22;1368;49.484;11.112;2022-09-17T00:45:07;10.30;99.90
2721;DHT22;1368;49.484;11.112;2022-09-17T00:47:37;10.30;99.90
2721;DHT22;1368;49.484;11.112;2022-09-17T00:55:19;10.10;99.90
2721;DHT22;1368;49.484;11.112;2022-09-17T00:57:48;10.10;99.90
2721;DHT22;1368;49.484;11.112;2022-09-17T01:00:15;9.90;99.90
2721;DHT22;1368;49.484;11.112;2022-09-17T01:02:42;10.00;99.90
2721;DHT22;1368;49.484;11.112;2022-09-17T01:05:07;10.00;99.90
2721;DHT22;1368;49.484;11.112;2022-09-17T01:07:56;10.10;99.90
2721;DHT22;1368;49.484;11.112;2022-09-17T01:10:53;10.20;99.90
2721;DHT22;1368;49.484;11.112;2022-09-17T01:16:25;10.00;99.90
2721;DHT22;1368;49.484;11.112;2022-09-17T01:21:48;10.10;99.90
2721;DHT22;1368;49.484;11.112;2022-09-17T01:33:26;10.30;99.90
2721;DHT22;1368;49.484;11.112;2022-09-17T01:38:46;10.30;99.90
2721;DHT22;1368;49.484;11.112;2022-09-17T01:44:01;10.20;99.90
2721;DHT22;1368;49.484;11.112;2022-09-17T01:46:51;10.20;99.90
2721;DHT22;1368;49.484;11.112;2022-09-17T01:49:20;10.10;99.90
2721;DHT22;1368;49.484;11.112;2022-09-17T01:51:48;10.00;99.90
2721;DHT22;1368;49.484;11.112;2022-09-17T01:54:19;10.00;99.90
2721;DHT22;1368;49.484;11.112;2022-09-17T01:56:53;10.00;99.90
2721;DHT22;1368;49.484;11.112;2022-09-17T02:02:17;10.00;99.90
2721;DHT22;1368;49.484;11.112;2022-09-17T02:04:56;10.00;99.90
2721;DHT22;1368;49.484;11.112;2022-09-17T02:07:23;10.10;99.90
2721;DHT22;1368;49.484;11.112;2022-09-17T02:09:56;10.20;99.90
2721;DHT22;1368;49.484;11.112;2022-09-17T02:12:30;10.30;99.90
2721;DHT22;1368;49.484;11.112;2022-09-17T02:14:59;10.30;99.90
2721;DHT22;1368;49.484;11.112;2022-09-17T02:17:30;10.30;99.90
2721;DHT22;1368;49.484;11.112;2022-09-17T02:19:57;10.40;99.90
2721;DHT22;1368;49.484;11.112;2022-09-17T02:22:33;10.40;99.90
2721;DHT22;1368;49.484;11.112;2022-09-17T02:25:15;10.50;99.90
2721;DHT22;1368;49.484;11.112;2022-09-17T02:27:51;10.60;99.90
2721;DHT22;1368;49.484;11.112;2022-09-17T02:30:19;10.70;99.90
2721;DHT22;1368;49.484;11.112;2022-09-17T02:32:45;11.40;99.90
2721;DHT22;1368;49.484;11.112;2022-09-17T02:35:12;10.70;99.90
2721;DHT22;1368;49.484;11.112;2022-09-17T02:37:42;10.90;99.90
2721;DHT22;1368;49.484;11.112;2022-09-17T02:40:09;10.90;99.90
2721;DHT22;1368;49.484;11.112;2022-09-17T02:45:19;11.20;99.90
2721;DHT22;1368;49.484;11.112;2022-09-17T02:56:12;10.90;99.90
2721;DHT22;1368;49.484;11.112;2022-09-17T03:01:33;11.00;99.90
2721;DHT22;1368;49.484;11.112;2022-09-17T03:04:04;10.80;99.90
2721;DHT22;1368;49.484;11.112;2022-09-17T03:06:31;10.90;99.90
2721;DHT22;1368;49.484;11.112;2022-09-17T03:08:57;11.00;99.90
2721;DHT22;1368;49.484;11.112;2022-09-17T03:11:22;11.30;99.90
2721;DHT22;1368;49.484;11.112;2022-09-17T03:13:48;11.00;99.90
2721;DHT22;1368;49.484;11.112;2022-09-17T03:16:14;10.90;99.90
2721;DHT22;1368;49.484;11.112;2022-09-17T03:18:39;11.50;99.90
2721;DHT22;1368;49.484;11.112;2022-09-17T03:21:05;10.80;99.90
2721;DHT22;1368;49.484;11.112;2022-09-17T03:23:30;10.70;99.90
2721;DHT22;1368;49.484;11.112;2022-09-17T03:25:57;10.70;99.90
2721;DHT22;1368;49.484;11.112;2022-09-17T03:28:23;10.90;99.90
2721;DHT22;1368;49.484;11.112;2022-09-17T03:30:51;11.00;99.90
2721;DHT22;1368;49.484;11.112;2022-09-17T03:33:16;11.10;99.90
2721;DHT22;1368;49.484;11.112;2022-09-17T03:35:45;11.20;99.90
2721;DHT22;1368;49.484;11.112;2022-09-17T03:38:12;11.00;99.90
2721;DHT22;1368;49.484;11.112;2022-09-17T03:40:37;10.90;99.90
2721;DHT22;1368;49.484;11.112;2022-09-17T03:43:04;10.90;99.90
2721;DHT22;1368;49.484;11.112;2022-09-17T03:45:30;10.90;99.90
2721;DHT22;1368;49.484;11.112;2022-09-17T03:47:56;11.00;99.90
2721;DHT22;1368;49.484;11.112;2022-09-17T03:50:21;10.90;99.90
2721;DHT22;1368;49.484;11.112;2022-09-17T03:52:47;11.10;99.90
2721;DHT22;1368;49.484;11.112;2022-09-17T03:55:12;11.40;99.90
2721;DHT22;1368;49.484;11.112;2022-09-17T03:57:38;11.50;99.90
2721;DHT22;1368;49.484;11.112;2022-09-17T04:00:04;11.50;99.90
2721;DHT22;1368;49.484;11.112;2022-09-17T04:02:31;11.50;99.90
2721;DHT22;1368;49.484;11.112;2022-09-17T04:04:56;11.30;99.90
2721;DHT22;1368;49.484;11.112;2022-09-17T04:07:22;11.60;99.90
2721;DHT22;1368;49.484;11.112;2022-09-17T04:09:47;11.50;99.90
2721;DHT22;1368;49.484;11.112;2022-09-17T04:12:13;11.50;99.90
2721;DHT22;1368;49.484;11.112;2022-09-17T04:14:38;11.30;99.90
2721;DHT22;1368;49.484;11.112;2022-09-17T04:17:04;11.20;99.90
2721;DHT22;1368;49.484;11.112;2022-09-17T04:19:29;11.30;99.90
2721;DHT22;1368;49.484;11.112;2022-09-17T04:21:55;11.30;99.90
2721;DHT22;1368;49.484;11.112;2022-09-17T04:24:20;11.30;99.90
2721;DHT22;1368;49.484;11.112;2022-09-17T04:26:46;11.40;99.90
2721;DHT22;1368;49.484;11.112;2022-09-17T04:29:11;11.50;99.90
2721;DHT22;1368;49.484;11.112;2022-09-17T04:31:37;11.60;99.90
2721;DHT22;1368;49.484;11.112;2022-09-17T04:34:03;11.70;99.90
2721;DHT22;1368;49.484;11.112;2022-09-17T04:36:28;11.60;99.90
2721;DHT22;1368;49.484;11.112;2022-09-17T04:38:54;11.40;99.90
2721;DHT22;1368;49.484;11.112;2022-09-17T04:41:19;11.60;99.90
2721;DHT22;1368;49.484;11.112;2022-09-17T04:43:45;11.50;99.90
2721;DHT22;1368;49.484;11.112;2022-09-17T04:46:10;11.50;99.90
2721;DHT22;1368;49.484;11.112;2022-09-17T04:48:37;11.60;99.90
2721;DHT22;1368;49.484;11.112;2022-09-17T04:51:03;11.70;99.90
2721;DHT22;1368;49.484;11.112;2022-09-17T04:53:29;11.60;99.90
2721;DHT22;1368;49.484;11.112;2022-09-17T04:55:54;11.60;99.90
2721;DHT22;1368;49.484;11.112;2022-09-17T04:58:20;11.50;99.90
2721;DHT22;1368;49.484;11.112;2022-09-17T05:00:45;11.30;99.90
2721;DHT22;1368;49.484;11.112;2022-09-17T05:03:11;11.10;99.90
2721;DHT22;1368;49.484;11.112;2022-09-17T05:05:37;11.10;99.90
2721;DHT22;1368;49.484;11.112;2022-09-17T05:08:02;11.20;99.90
2721;DHT22;1368;49.484;11.112;2022-09-17T05:10:28;11.30;99.90
2721;DHT22;1368;49.484;11.112;2022-09-17T05:12:55;11.50;99.90
2721;DHT22;1368;49.484;11.112;2022-09-17T05:15:21;11.50;99.90
2721;DHT22;1368;49.484;11.112;2022-09-17T05:17:47;11.40;99.90
2721;DHT22;1368;49.484;11.112;2022-09-17T05:20:14;11.40;99.90
2721;DHT22;1368;49.484;11.112;2022-09-17T05:22:45;11.30;99.90
2721;DHT22;1368;49.484;11.112;2022-09-17T05:25:13;11.40;99.90
2721;DHT22;1368;49.484;11.112;2022-09-17T05:27:39;11.50;99.90
2721;DHT22;1368;49.484;11.112;2022-09-17T05:30:05;11.30;99.90
2721;DHT22;1368;49.484;11.112;2022-09-17T05:32:31;11.30;99.90
2721;DHT22;1368;49.484;11.112;2022-09-17T05:34:56;11.30;99.90
2721;DHT22;1368;49.484;11.112;2022-09-17T05:37:22;11.30;99.90
2721;DHT22;1368;49.484;11.112;2022-09-17T05:39:48;11.40;99.90
2721;DHT22;1368;49.484;11.112;2022-09-17T05:42:13;11.20;99.90
2721;DHT22;1368;49.484;11.112;2022-09-17T05:44:39;11.10;99.90
2721;DHT22;1368;49.484;11.112;2022-09-17T05:47:04;11.50;99.90
2721;DHT22;1368;49.484;11.112;2022-09-17T05:49:30;10.90;99.90
2721;DHT22;1368;49.484;11.112;2022-09-17T05:51:55;11.20;99.90
2721;DHT22;1368;49.484;11.112;2022-09-17T05:54:21;10.70;99.90
2721;DHT22;1368;49.484;11.112;2022-09-17T05:56:46;10.60;99.90
2721;DHT22;1368;49.484;11.112;2022-09-17T05:59:12;10.50;99.90
2721;DHT22;1368;49.484;11.112;2022-09-17T06:01:39;10.50;99.90
2721;DHT22;1368;49.484;11.112;2022-09-17T06:04:05;10.50;99.90
2721;DHT22;1368;49.484;11.112;2022-09-17T06:06:30;10.50;99.90
2721;DHT22;1368;49.484;11.112;2022-09-17T06:08:59;10.80;99.90
2721;DHT22;1368;49.484;11.112;2022-09-17T06:11:25;11.00;99.90
2721;DHT22;1368;49.484;11.112;2022-09-17T06:13:54;11.00;99.90
2721;DHT22;1368;49.484;11.112;2022-09-17T06:16:21;11.00;99.90
2721;DHT22;1368;49.484;11.112;2022-09-17T06:18:47;11.10;99.90
2721;DHT22;1368;49.484;11.112;2022-09-17T06:21:14;11.20;99.90
2721;DHT22;1368;49.484;11.112;2022-09-17T06:23:41;11.70;99.90
2721;DHT22;1368;49.484;11.112;2022-09-17T06:26:08;11.40;99.90
2721;DHT22;1368;49.484;11.112;2022-09-17T06:28:34;11.40;99.90
2721;DHT22;1368;49.484;11.112;2022-09-17T06:31:01;11.40;99.90
2721;DHT22;1368;49.484;11.112;2022-09-17T06:33:27;11.40;99.90
2721;DHT22;1368;49.484;11.112;2022-09-17T06:36:01;11.40;99.90
2721;DHT22;1368;49.484;11.112;2022-09-17T06:38:27;11.50;99.90
2721;DHT22;1368;49.484;11.112;2022-09-17T06:40:53;11.60;99.90
2721;DHT22;1368;49.484;11.112;2022-09-17T06:43:20;11.60;99.90
2721;DHT22;1368;49.484;11.112;2022-09-17T06:46:00;11.30;99.90
2721;DHT22;1368;49.484;11.112;2022-09-17T06:48:28;11.50;99.90
2721;DHT22;1368;49.484;11.112;2022-09-17T06:50:54;11.20;99.90
2721;DHT22;1368;49.484;11.112;2022-09-17T06:53:23;11.30;99.90
2721;DHT22;1368;49.484;11.112;2022-09-17T06:55:49;11.10;99.90
2721;DHT22;1368;49.484;11.112;2022-09-17T06:58:15;11.10;99.90
2721;DHT22;1368;49.484;11.112;2022-09-17T07:00:41;11.10;99.90
2721;DHT22;1368;49.484;11.112;2022-09-17T07:03:08;10.90;99.90
2721;DHT22;1368;49.484;11.112;2022-09-17T07:05:33;10.90;99.90
2721;DHT22;1368;49.484;11.112;2022-09-17T07:08:02;10.70;99.90
2721;DHT22;1368;49.484;11.112;2022-09-17T07:10:28;10.70;99.90
2721;DHT22;1368;49.484;11.112;2022-09-17T07:12:54;10.90;99.90
2721;DHT22;1368;49.484;11.112;2022-09-17T07:15:20;10.90;99.90
2721;DHT22;1368;49.484;11.112;2022-09-17T07:17:46;11.50;99.90
2721;DHT22;1368;49.484;11.112;2022-09-17T07:20:12;10.90;99.90
2721;DHT22;1368;49.484;11.112;2022-09-17T07:22:38;10.90;99.90
2721;DHT22;1368;49.484;11.112;2022-09-17T07:25:04;10.80;99.90
2721;DHT22;1368;49.484;11.112;2022-09-17T07:27:31;10.90;99.90
2721;DHT22;1368;49.484;11.112;2022-09-17T07:29:57;10.90;99.90
2721;DHT22;1368;49.484;11.112;2022-09-17T07:32:23;11.00;99.90
2721;DHT22;1368;49.484;11.112;2022-09-17T07:34:48;10.90;99.90
2721;DHT22;1368;49.484;11.112;2022-09-17T07:37:15;10.90;99.90
2721;DHT22;1368;49.484;11.112;2022-09-17T07:39:41;10.90;99.90
2721;DHT22;1368;49.484;11.112;2022-09-17T07:42:07;10.80;99.90
2721;DHT22;1368;49.484;11.112;2022-09-17T07:44:33;10.80;99.90
2721;DHT22;1368;49.484;11.112;2022-09-17T07:46:59;11.00;99.90
2721;DHT22;1368;49.484;11.112;2022-09-17T07:49:24;10.80;99.90
2721;DHT22;1368;49.484;11.112;2022-09-17T07:51:50;10.70;99.90
2721;DHT22;1368;49.484;11.112;2022-09-17T07:54:16;10.90;99.90
2721;DHT22;1368;49.484;11.112;2022-09-17T07:56:41;10.90;99.90
2721;DHT22;1368;49.484;11.112;2022-09-17T07:59:08;11.00;99.90
2721;DHT22;1368;49.484;11.112;2022-09-17T08:01:34;11.00;99.90
2721;DHT22;1368;49.484;11.112;2022-09-17T08:04:01;11.10;99.90
2721;DHT22;1368;49.484;11.112;2022-09-17T08:06:27;11.20;99.90
2721;DHT22;1368;49.484;11.112;2022-09-17T08:08:57;11.10;99.90
2721;DHT22;1368;49.484;11.112;2022-09-17T08:11:26;11.20;99.90
2721;DHT22;1368;49.484;11.112;2022-09-17T08:13:52;11.30;99.90
2721;DHT22;1368;49.484;11.112;2022-09-17T08:16:20;11.30;99.90
2721;DHT22;1368;49.484;11.112;2022-09-17T08:18:47;11.30;99.90
2721;DHT22;1368;49.484;11.112;2022-09-17T08:21:15;11.40;99.90
2721;DHT22;1368;49.484;11.112;2022-09-17T08:23:42;11.50;99.90
2721;DHT22;1368;49.484;11.112;2022-09-17T08:26:12;11.30;99.90
2721;DHT22;1368;49.484;11.112;2022-09-17T08:28:38;11.10;99.90
2721;DHT22;1368;49.484;11.112;2022-09-17T08:31:06;11.10;99.90
2721;DHT22;1368;49.484;11.112;2022-09-17T08:33:37;11.30;99.90
2721;DHT22;1368;49.484;11.112;2022-09-17T08:36:04;11.50;99.90
2721;DHT22;1368;49.484;11.112;2022-09-17T08:38:31;11.40;99.90
2721;DHT22;1368;49.484;11.112;2022-09-17T08:41:08;11.50;99.90
2721;DHT22;1368;49.484;11.112;2022-09-17T08:46:30;11.60;99.90
2721;DHT22;1368;49.484;11.112;2022-09-17T08:49:24;11.80;99.90
2721;DHT22;1368;49.484;11.112;2022-09-17T09:00:16;12.10;99.90
2721;DHT22;1368;49.484;11.112;2022-09-17T09:05:47;12.40;99.90
2721;DHT22;1368;49.484;11.112;2022-09-17T09:08:33;12.60;99.90
2721;DHT22;1368;49.484;11.112;2022-09-17T09:11:04;13.10;99.90
2721;DHT22;1368;49.484;11.112;2022-09-17T09:13:37;13.60;99.90
2721;DHT22;1368;49.484;11.112;2022-09-17T09:18:39;14.70;99.90
2721;DHT22;1368;49.484;11.112;2022-09-17T09:21:25;15.00;99.90
2721;DHT22;1368;49.484;11.112;2022-09-17T09:23:54;15.00;99.90
2721;DHT22;1368;49.484;11.112;2022-09-17T09:34:37;15.60;99.90
2721;DHT22;1368;49.484;11.112;2022-09-17T09:37:29;15.60;99.90
2721;DHT22;1368;49.484;11.112;2022-09-17T09:40:02;15.60;99.90
2721;DHT22;1368;49.484;11.112;2022-09-17T09:42:32;15.70;99.90
2721;DHT22;1368;49.484;11.112;2022-09-17T09:45:01;16.00;99.90
2721;DHT22;1368;49.484;11.112;2022-09-17T09:58:44;16.50;99.90
2721;DHT22;1368;49.484;11.112;2022-09-17T10:01:17;16.60;99.90
2721;DHT22;1368;49.484;11.112;2022-09-17T10:03:48;16.80;99.90
2721;DHT22;1368;49.484;11.112;2022-09-17T10:06:16;17.10;99.90
2721;DHT22;1368;49.484;11.112;2022-09-17T10:11:30;17.60;99.90
2721;DHT22;1368;49.484;11.112;2022-09-17T10:14:22;17.90;99.90
2721;DHT22;1368;49.484;11.112;2022-09-17T10:16:49;17.90;99.90
2721;DHT22;1368;49.484;11.112;2022-09-17T10:19:19;17.60;99.90
2721;DHT22;1368;49.484;11.112;2022-09-17T10:21:49;17.70;99.90
2721;DHT22;1368;49.484;11.112;2022-09-17T10:24:26;17.70;99.90
2721;DHT22;1368;49.484;11.112;2022-09-17T10:27:04;17.60;99.90
2721;DHT22;1368;49.484;11.112;2022-09-17T10:29:31;18.00;99.90
2721;DHT22;1368;49.484;11.112;2022-09-17T10:31:57;18.50;99.90
2721;DHT22;1368;49.484;11.112;2022-09-17T10:34:29;18.90;99.90
2721;DHT22;1368;49.484;11.112;2022-09-17T10:36:55;19.60;99.90
2721;DHT22;1368;49.484;11.112;2022-09-17T10:44:34;20.30;99.90
2721;DHT22;1368;49.484;11.112;2022-09-17T10:47:16;20.20;99.90
2721;DHT22;1368;49.484;11.112;2022-09-17T10:49:47;19.80;99.90
2721;DHT22;1368;49.484;11.112;2022-09-17T10:54:58;19.80;99.90
2721;DHT22;1368;49.484;11.112;2022-09-17T10:57:43;19.90;99.90
2721;DHT22;1368;49.484;11.112;2022-09-17T11:00:19;19.80;99.90
2721;DHT22;1368;49.484;11.112;2022-09-17T11:05:47;18.60;99.90
2721;DHT22;1368;49.484;11.112;2022-09-17T11:11:07;17.50;99.90
2721;DHT22;1368;49.484;11.112;2022-09-17T11:13:59;17.50;99.90
2721;DHT22;1368;49.484;11.112;2022-09-17T11:25:13;17.30;99.90
2721;DHT22;1368;49.484;11.112;2022-09-17T11:27:57;17.30;99.90
2721;DHT22;1368;49.484;11.112;2022-09-17T11:30:32;17.00;99.90
2721;DHT22;1368;49.484;11.112;2022-09-17T11:33:23;16.80;99.90
2721;DHT22;1368;49.484;11.112;2022-09-17T11:35:55;17.00;99.90
2721;DHT22;1368;49.484;11.112;2022-09-17T11:38:44;17.00;99.90
2721;DHT22;1368;49.484;11.112;2022-09-17T11:41:24;17.10;99.90
2721;DHT22;1368;49.484;11.112;2022-09-17T11:44:27;17.10;99.90
2721;DHT22;1368;49.484;11.112;2022-09-17T11:47:14;17.60;99.90
2721;DHT22;1368;49.484;11.112;2022-09-17T11:52:28;18.10;99.90
2721;DHT22;1368;49.484;11.112;2022-09-17T11:55:20;18.00;99.90
2721;DHT22;1368;49.484;11.112;2022-09-17T11:57:51;18.10;99.90
2721;DHT22;1368;49.484;11.112;2022-09-17T12:00:22;18.30;99.90
2721;DHT22;1368;49.484;11.112;2022-09-17T12:02:58;18.70;99.90
2721;DHT22;1368;49.484;11.112;2022-09-17T12:05:38;18.80;99.90
2721;DHT22;1368;49.484;11.112;2022-09-17T12:13:43;17.80;99.90
2721;DHT22;1368;49.484;11.112;2022-09-17T12:19:16;15.50;99.90
2721;DHT22;1368;49.484;11.112;2022-09-17T12:21:46;14.50;99.90
2721;DHT22;1368;49.484;11.112;2022-09-17T12:40:58;14.90;99.90
2721;DHT22;1368;49.484;11.112;2022-09-17T12:43:53;14.60;99.90
2721;DHT22;1368;49.484;11.112;2022-09-17T12:46:39;14.60;99.90
2721;DHT22;1368;49.484;11.112;2022-09-17T12:52:10;15.60;99.90
2721;DHT22;1368;49.484;11.112;2022-09-17T13:00:11;16.40;99.90
2721;DHT22;1368;49.484;11.112;2022-09-17T13:10:50;15.90;99.90
2721;DHT22;1368;49.484;11.112;2022-09-17T13:21:53;16.90;99.90
2721;DHT22;1368;49.484;11.112;2022-09-17T13:24:21;16.70;99.90
2721;DHT22;1368;49.484;11.112;2022-09-17T13:26:50;16.90;99.90
2721;DHT22;1368;49.484;11.112;2022-09-17T13:32:46;16.60;99.90
2721;DHT22;1368;49.484;11.112;2022-09-17T13:37:42;14.10;99.90
2721;DHT22;1368;49.484;11.112;2022-09-17T13:40:21;13.20;99.90
2721;DHT22;1368;49.484;11.112;2022-09-17T13:42:51;12.20;99.90
2721;DHT22;1368;49.484;11.112;2022-09-17T13:45:20;11.80;99.90
2721;DHT22;1368;49.484;11.112;2022-09-17T13:52:56;11.10;99.90
2721;DHT22;1368;49.484;11.112;2022-09-17T14:08:47;11.80;99.90
2721;DHT22;1368;49.484;11.112;2022-09-17T14:16:31;12.40;99.90
2721;DHT22;1368;49.484;11.112;2022-09-17T14:27:09;13.00;99.90
2721;DHT22;1368;49.484;11.112;2022-09-17T14:35:46;13.40;99.90
2721;DHT22;1368;49.484;11.112;2022-09-17T14:46:32;13.30;99.90
2721;DHT22;1368;49.484;11.112;2022-09-17T14:49:14;13.40;99.90
2721;DHT22;1368;49.484;11.112;2022-09-17T14:51:42;13.50;99.90
2721;DHT22;1368;49.484;11.112;2022-09-17T14:54:15;13.50;99.90
2721;DHT22;1368;49.484;11.112;2022-09-17T15:04:54;13.50;99.90
2721;DHT22;1368;49.484;11.112;2022-09-17T15:07:22;13.60;99.90
2721;DHT22;1368;49.484;11.112;2022-09-17T15:09:47;13.70;99.90
2721;DHT22;1368;49.484;11.112;2022-09-17T15:12:16;14.10;99.90
2721;DHT22;1368;49.484;11.112;2022-09-17T15:14:44;13.90;99.90
2721;DHT22;1368;49.484;11.112;2022-09-17T15:17:13;13.80;99.90
2721;DHT22;1368;49.484;11.112;2022-09-17T15:19:50;13.80;99.90
2721;DHT22;1368;49.484;11.112;2022-09-17T15:22:22;13.80;99.90
2721;DHT22;1368;49.484;11.112;2022-09-17T15:24:51;13.70;99.90
2721;DHT22;1368;49.484;11.112;2022-09-17T15:29:49;14.10;99.90
2721;DHT22;1368;49.484;11.112;2022-09-17T15:32:15;14.10;99.90
2721;DHT22;1368;49.484;11.112;2022-09-17T15:34:41;14.00;99.90
2721;DHT22;1368;49.484;11.112;2022-09-17T15:37:19;14.00;99.90
2721;DHT22;1368;49.484;11.112;2022-09-17T15:39:50;14.00;99.90
2721;DHT22;1368;49.484;11.112;2022-09-17T15:42:29;14.20;99.90
2721;DHT22;1368;49.484;11.112;2022-09-17T15:45:19;14.50;99.90
2721;DHT22;1368;49.484;11.112;2022-09-17T15:47:57;15.00;99.90
2721;DHT22;1368;49.484;11.112;2022-09-17T15:50:34;15.20;99.90
2721;DHT22;1368;49.484;11.112;2022-09-17T15:53:23;15.30;99.90
2721;DHT22;1368;49.484;11.112;2022-09-17T16:08:56;14.20;99.90
2721;DHT22;1368;49.484;11.112;2022-09-17T16:11:28;14.30;99.90
2721;DHT22;1368;49.484;11.112;2022-09-17T16:13:56;14.20;99.90
2721;DHT22;1368;49.484;11.112;2022-09-17T16:16:26;13.90;99.90
2721;DHT22;1368;49.484;11.112;2022-09-17T16:18:53;13.90;99.90
2721;DHT22;1368;49.484;11.112;2022-09-17T16:21:19;13.80;99.90
2721;DHT22;1368;49.484;11.112;2022-09-17T16:23:45;13.80;99.90
2721;DHT22;1368;49.484;11.112;2022-09-17T16:26:22;13.90;99.90
2721;DHT22;1368;49.484;11.112;2022-09-17T16:28:52;13.90;99.90
2721;DHT22;1368;49.484;11.112;2022-09-17T16:31:18;13.70;99.90
2721;DHT22;1368;49.484;11.112;2022-09-17T16:33:45;13.90;99.90
2721;DHT22;1368;49.484;11.112;2022-09-17T16:36:10;13.90;99.90
2721;DHT22;1368;49.484;11.112;2022-09-17T16:38:36;14.40;99.90
2721;DHT22;1368;49.484;11.112;2022-09-17T16:41:06;14.00;99.90
2721;DHT22;1368;49.484;11.112;2022-09-17T16:43:33;13.90;99.90
2721;DHT22;1368;49.484;11.112;2022-09-17T16:46:00;14.00;99.90
2721;DHT22;1368;49.484;11.112;2022-09-17T16:48:26;14.10;99.90
2721;DHT22;1368;49.484;11.112;2022-09-17T16:50:51;14.40;99.90
2721;DHT22;1368;49.484;11.112;2022-09-17T16:53:17;14.10;99.90
2721;DHT22;1368;49.484;11.112;2022-09-17T16:55:42;14.00;99.90
2721;DHT22;1368;49.484;11.112;2022-09-17T16:58:08;13.70;99.90
2721;DHT22;1368;49.484;11.112;2022-09-17T17:00:34;13.20;99.90
2721;DHT22;1368;49.484;11.112;2022-09-17T17:03:01;12.80;99.90
2721;DHT22;1368;49.484;11.112;2022-09-17T17:05:27;12.50;99.90
2721;DHT22;1368;49.484;11.112;2022-09-17T17:07:53;12.30;99.90
2721;DHT22;1368;49.484;11.112;2022-09-17T17:10:20;12.50;99.90
2721;DHT22;1368;49.484;11.112;2022-09-17T17:12:46;12.00;99.90
2721;DHT22;1368;49.484;11.112;2022-09-17T17:15:12;11.80;99.90
2721;DHT22;1368;49.484;11.112;2022-09-17T17:17:38;11.80;99.90
2721;DHT22;1368;49.484;11.112;2022-09-17T17:20:08;11.80;99.90
2721;DHT22;1368;49.484;11.112;2022-09-17T17:22:38;11.90;99.90
2721;DHT22;1368;49.484;11.112;2022-09-17T17:25:04;11.70;99.90
2721;DHT22;1368;49.484;11.112;2022-09-17T17:27:30;11.70;99.90
2721;DHT22;1368;49.484;11.112;2022-09-17T17:29:56;11.70;99.90
2721;DHT22;1368;49.484;11.112;2022-09-17T17:32:21;11.80;99.90
2721;DHT22;1368;49.484;11.112;2022-09-17T17:34:47;12.00;99.90
2721;DHT22;1368;49.484;11.112;2022-09-17T17:37:15;12.00;99.90
2721;DHT22;1368;49.484;11.112;2022-09-17T17:39:40;12.00;99.90
2721;DHT22;1368;49.484;11.112;2022-09-17T17:42:06;12.00;99.90
2721;DHT22;1368;49.484;11.112;2022-09-17T17:44:32;11.90;99.90
2721;DHT22;1368;49.484;11.112;2022-09-17T17:46:57;12.00;99.90
2721;DHT22;1368;49.484;11.112;2022-09-17T17:49:23;12.40;99.90
2721;DHT22;1368;49.484;11.112;2022-09-17T17:51:48;11.80;99.90
2721;DHT22;1368;49.484;11.112;2022-09-17T17:54:14;12.00;99.90
2721;DHT22;1368;49.484;11.112;2022-09-17T17:56:39;11.40;99.90
2721;DHT22;1368;49.484;11.112;2022-09-17T17:59:05;11.40;99.90
2721;DHT22;1368;49.484;11.112;2022-09-17T18:01:31;11.30;99.90
2721;DHT22;1368;49.484;11.112;2022-09-17T18:04:01;11.10;99.90
2721;DHT22;1368;49.484;11.112;2022-09-17T18:06:27;11.10;99.90
2721;DHT22;1368;49.484;11.112;2022-09-17T18:08:53;11.20;99.90
2721;DHT22;1368;49.484;11.112;2022-09-17T18:11:20;11.30;99.90
2721;DHT22;1368;49.484;11.112;2022-09-17T18:13:50;11.30;99.90
2721;DHT22;1368;49.484;11.112;2022-09-17T18:16:15;11.30;99.90
2721;DHT22;1368;49.484;11.112;2022-09-17T18:18:43;11.30;99.90
2721;DHT22;1368;49.484;11.112;2022-09-17T18:21:13;11.20;99.90
2721;DHT22;1368;49.484;11.112;2022-09-17T18:23:40;11.20;99.90
2721;DHT22;1368;49.484;11.112;2022-09-17T18:26:09;11.10;99.90
2721;DHT22;1368;49.484;11.112;2022-09-17T18:28:36;11.10;99.90
2721;DHT22;1368;49.484;11.112;2022-09-17T18:31:06;11.10;99.90
2721;DHT22;1368;49.484;11.112;2022-09-17T18:33:32;11.10;99.90
2721;DHT22;1368;49.484;11.112;2022-09-17T18:36:03;11.00;99.90
2721;DHT22;1368;49.484;11.112;2022-09-17T18:38:29;11.00;99.90
2721;DHT22;1368;49.484;11.112;2022-09-17T18:40:55;11.00;99.90
2721;DHT22;1368;49.484;11.112;2022-09-17T18:43:20;10.90;99.90
2721;DHT22;1368;49.484;11.112;2022-09-17T18:45:56;10.80;99.90
2721;DHT22;1368;49.484;11.112;2022-09-17T18:48:23;10.80;99.90
2721;DHT22;1368;49.484;11.112;2022-09-17T18:51:06;10.70;99.90
2721;DHT22;1368;49.484;11.112;2022-09-17T18:53:35;10.60;99.90
2721;DHT22;1368;49.484;11.112;2022-09-17T18:56:04;10.50;99.90
2721;DHT22;1368;49.484;11.112;2022-09-17T18:58:31;10.20;99.90
2721;DHT22;1368;49.484;11.112;2022-09-17T19:00:56;10.10;99.90
2721;DHT22;1368;49.484;11.112;2022-09-17T19:03:22;10.00;99.90
2721;DHT22;1368;49.484;11.112;2022-09-17T19:05:47;10.10;99.90
2721;DHT22;1368;49.484;11.112;2022-09-17T19:08:13;10.10;99.90
2721;DHT22;1368;49.484;11.112;2022-09-17T19:10:38;10.10;99.90
2721;DHT22;1368;49.484;11.112;2022-09-17T19:13:04;10.00;99.90
2721;DHT22;1368;49.484;11.112;2022-09-17T19:15:30;10.10;99.90
2721;DHT22;1368;49.484;11.112;2022-09-17T19:17:57;10.00;99.90
2721;DHT22;1368;49.484;11.112;2022-09-17T19:20:23;10.00;99.90
2721;DHT22;1368;49.484;11.112;2022-09-17T19:22:49;10.00;99.90
2721;DHT22;1368;49.484;11.112;2022-09-17T19:25:15;10.20;99.90
2721;DHT22;1368;49.484;11.112;2022-09-17T19:27:40;10.30;99.90
2721;DHT22;1368;49.484;11.112;2022-09-17T19:30:06;10.30;99.90
2721;DHT22;1368;49.484;11.112;2022-09-17T19:32:32;10.30;99.90
2721;DHT22;1368;49.484;11.112;2022-09-17T19:34:58;10.50;99.90
2721;DHT22;1368;49.484;11.112;2022-09-17T19:37:25;10.10;99.90
2721;DHT22;1368;49.484;11.112;2022-09-17T19:39:50;10.10;99.90
2721;DHT22;1368;49.484;11.112;2022-09-17T19:42:16;10.20;99.90
2721;DHT22;1368;49.484;11.112;2022-09-17T19:44:41;10.20;99.90
2721;DHT22;1368;49.484;11.112;2022-09-17T19:47:07;10.10;99.90
2721;DHT22;1368;49.484;11.112;2022-09-17T19:49:32;10.10;99.90